createdAt,value
2019-04-20T00:00:06.681Z,44.94
2019-04-20T00:02:44.069Z,44.78
2019-04-20T00:05:16.987Z,44.89
2019-04-20T00:07:52.162Z,44.79
2019-04-20T00:10:27.260Z,45.08
2019-04-20T00:13:11.411Z,45.14
2019-04-20T00:15:38.930Z,45.51
2019-04-20T00:18:15.039Z,45.36
2019-04-20T00:21:00.367Z,45.33
2019-04-20T00:23:45.052Z,45.06
2019-04-20T00:27:03.638Z,45.20
2019-04-20T00:29:25.406Z,45.54
2019-04-20T00:31:56.652Z,45.79
2019-04-20T00:34:26.718Z,45.75
2019-04-20T00:36:54.244Z,45.79
2019-04-20T00:39:30.353Z,45.81
2019-04-20T00:42:08.013Z,45.81
2019-04-20T00:44:43.841Z,45.80
2019-04-20T00:47:30.723Z,45.81
2019-04-20T00:50:00.889Z,45.87
2019-04-20T00:52:45.212Z,45.76
2019-04-20T00:55:02.391Z,45.84
2019-04-20T00:57:46.610Z,46.10
2019-04-20T01:00:33.897Z,45.99
2019-04-20T01:03:11.059Z,46.22
2019-04-20T01:05:53.029Z,46.08
2019-04-20T01:08:21.636Z,46.19
2019-04-20T01:11:00.731Z,46.38
2019-04-20T01:13:42.187Z,46.54
2019-04-20T01:16:26.803Z,46.65
2019-04-20T01:18:48.262Z,46.81
2019-04-20T01:21:28.827Z,46.83
2019-04-20T01:24:04.649Z,47.00
2019-04-20T01:26:43.509Z,47.14
2019-04-20T01:29:21.754Z,46.98
2019-04-20T01:32:00.722Z,47.11
2019-04-20T01:34:39.325Z,47.21
2019-04-20T01:37:14.458Z,47.42
2019-04-20T01:39:41.847Z,47.71
2019-04-20T01:42:13.046Z,47.69
2019-04-20T01:44:50.802Z,47.92
2019-04-20T01:47:32.086Z,48.06
2019-04-20T01:50:08.579Z,48.00
2019-04-20T01:52:50.851Z,48.24
2019-04-20T01:55:44.032Z,48.49
2019-04-20T01:58:30.327Z,48.27
2019-04-20T02:01:21.034Z,48.67
2019-04-20T02:03:56.845Z,48.96
2019-04-20T02:06:31.809Z,48.60
2019-04-20T02:09:16.686Z,49.14
2019-04-20T02:11:47.392Z,49.08
2019-04-20T02:14:27.326Z,49.19
2019-04-20T02:17:06.956Z,49.63
2019-04-20T02:20:04.603Z,49.43
2019-04-20T02:22:38.346Z,49.77
2019-04-20T02:24:55.132Z,49.88
2019-04-20T02:27:36.797Z,49.99
2019-04-20T02:42:20.331Z,50.53
2019-04-20T02:44:44.269Z,50.90
2019-04-20T02:47:21.619Z,50.94
2019-04-20T02:50:15.275Z,50.88
2019-04-20T02:57:55.186Z,50.85
2019-04-20T03:00:19.790Z,50.94
2019-04-20T03:02:46.048Z,51.16
2019-04-20T03:05:25.641Z,51.18
2019-04-20T03:08:02.862Z,51.02
2019-04-20T03:10:46.439Z,50.89
2019-04-20T03:13:18.622Z,50.90
2019-04-20T03:15:56.474Z,50.93
2019-04-20T03:18:32.123Z,50.93
2019-04-20T03:21:13.978Z,50.82
2019-04-20T03:23:54.250Z,51.03
2019-04-20T03:26:37.922Z,50.91
2019-04-20T03:29:30.605Z,50.48
2019-04-20T03:32:38.343Z,50.56
2019-04-20T03:37:38.205Z,51.06
2019-04-20T03:40:16.875Z,51.02
2019-04-20T03:42:33.092Z,51.35
2019-04-20T03:45:14.401Z,51.68
2019-04-20T03:48:03.034Z,51.44
2019-04-20T03:50:46.243Z,51.22
2019-04-20T03:53:27.794Z,51.38
2019-04-20T03:56:30.991Z,51.73
2019-04-20T03:59:08.145Z,51.30
2019-04-20T04:02:14.863Z,51.38
2019-04-20T04:04:54.570Z,51.15
2019-04-20T04:07:22.868Z,50.95
2019-04-20T04:10:08.437Z,51.11
2019-04-20T04:13:14.733Z,50.88
2019-04-20T04:15:57.492Z,50.86
2019-04-20T04:18:36.825Z,50.52
2019-04-20T04:21:10.002Z,51.05
2019-04-20T04:23:58.902Z,51.47
2019-04-20T04:26:37.820Z,51.57
2019-04-20T04:29:30.169Z,51.29
2019-04-20T04:32:14.122Z,49.68
2019-04-20T04:34:45.894Z,49.20
2019-04-20T04:37:17.624Z,47.96
2019-04-20T04:39:56.042Z,47.37
2019-04-20T04:42:30.379Z,47.07
2019-04-20T04:44:53.649Z,46.83
2019-04-20T04:47:26.275Z,47.06
2019-04-20T04:50:10.987Z,46.96
2019-04-20T04:52:53.690Z,46.75
2019-04-20T04:55:34.141Z,46.62
2019-04-20T04:57:58.436Z,46.81
2019-04-20T05:00:34.718Z,47.29
2019-04-20T05:03:26.686Z,47.01
2019-04-20T05:06:14.860Z,46.62
2019-04-20T05:08:42.008Z,46.50
2019-04-20T05:11:11.050Z,46.60
2019-04-20T05:13:54.646Z,46.48
2019-04-20T05:16:47.066Z,46.02
2019-04-20T05:19:26.096Z,46.15
2019-04-20T05:22:17.773Z,46.06
2019-04-20T05:25:05.748Z,45.57
2019-04-20T05:27:56.253Z,45.72
2019-04-20T05:30:11.870Z,46.31
2019-04-20T05:32:56.111Z,45.71
2019-04-20T05:35:44.133Z,45.07
2019-04-20T05:38:37.173Z,44.90
2019-04-20T05:41:11.829Z,44.76
2019-04-20T05:44:04.686Z,44.82
2019-04-20T05:46:59.924Z,44.40
2019-04-20T05:49:34.568Z,44.59
2019-04-20T05:52:36.193Z,44.96
2019-04-20T05:55:23.688Z,44.11
2019-04-20T05:58:11.222Z,43.31
2019-04-20T06:01:00.217Z,42.64
2019-04-20T06:03:37.149Z,43.49
2019-04-20T06:06:15.176Z,43.11
2019-04-20T06:09:08.569Z,42.44
2019-04-20T06:11:56.253Z,42.43
2019-04-20T06:14:39.464Z,42.48
2019-04-20T06:17:31.680Z,42.13
2019-04-20T06:20:15.564Z,41.71
2019-04-20T06:22:59.956Z,40.14
2019-04-20T06:26:07.565Z,41.58
2019-04-20T06:28:23.358Z,39.91
2019-04-20T06:30:52.620Z,39.52
2019-04-20T06:36:57.124Z,39.07
2019-04-20T06:39:40.716Z,38.98
2019-04-20T06:42:15.121Z,38.68
2019-04-20T06:44:50.814Z,38.59
2019-04-20T06:47:47.344Z,38.37
2019-04-20T06:50:01.780Z,44.08
2019-04-20T06:53:20.520Z,38.67
2019-04-20T06:55:59.985Z,37.49
2019-04-20T06:58:39.030Z,36.65
2019-04-20T07:01:02.152Z,37.58
2019-04-20T07:03:56.446Z,36.73
2019-04-20T07:06:32.130Z,35.09
2019-04-20T07:08:57.396Z,35.70
2019-04-20T07:11:23.252Z,36.26
2019-04-20T07:13:43.510Z,34.56
2019-04-20T07:16:36.375Z,34.30
2019-04-20T07:19:18.571Z,34.35
2019-04-20T07:24:56.656Z,33.90
2019-04-20T07:27:30.725Z,34.07
2019-04-20T07:30:07.378Z,35.55
2019-04-20T07:32:51.148Z,34.08
2019-04-20T07:35:14.212Z,32.33
2019-04-20T07:40:28.992Z,33.26
2019-04-20T07:43:19.739Z,32.58
2019-04-20T07:45:46.614Z,31.17
2019-04-20T07:48:25.779Z,30.76
2019-04-20T07:50:40.925Z,30.40
2019-04-20T07:53:24.612Z,31.40
2019-04-20T07:56:04.701Z,29.69
2019-04-20T07:58:25.060Z,29.11
2019-04-20T08:01:23.744Z,28.53
2019-04-20T08:04:06.640Z,29.54
2019-04-20T08:06:28.909Z,29.19
2019-04-20T08:09:11.616Z,28.86
2019-04-20T08:11:56.534Z,28.65
2019-04-20T08:14:31.832Z,29.43
2019-04-20T08:17:14.079Z,28.10
2019-04-20T08:19:41.003Z,27.67
2019-04-20T08:22:19.782Z,27.88
2019-04-20T08:24:48.458Z,27.21
2019-04-20T08:27:14.419Z,26.71
2019-04-20T08:30:09.085Z,27.91
2019-04-20T08:33:05.221Z,26.82
2019-04-20T08:35:52.589Z,26.94
2019-04-20T08:38:52.910Z,26.79
2019-04-20T08:41:00.298Z,27.16
2019-04-20T08:43:53.536Z,28.58
2019-04-20T08:46:17.781Z,26.63
2019-04-20T08:48:50.855Z,27.33
2019-04-20T08:51:26.065Z,26.07
2019-04-20T08:53:57.068Z,25.68
2019-04-20T08:56:31.163Z,25.19
2019-04-20T08:58:52.828Z,26.30
2019-04-20T09:01:30.884Z,27.76
2019-04-20T09:04:09.804Z,25.89
2019-04-20T09:06:54.541Z,24.92
2019-04-20T09:09:44.285Z,24.81
2019-04-20T09:12:06.395Z,25.27
2019-04-20T09:14:23.745Z,25.14
2019-04-20T09:17:06.839Z,24.67
2019-04-20T09:19:47.037Z,24.42
2019-04-20T09:22:38.785Z,23.52
2019-04-20T09:25:42.711Z,23.04
2019-04-20T09:27:50.765Z,24.17
2019-04-20T09:30:36.394Z,24.34
2019-04-20T09:33:14.586Z,26.24
2019-04-20T09:35:48.655Z,23.74
2019-04-20T09:38:21.702Z,23.69
2019-04-20T09:40:58.446Z,23.26
2019-04-20T09:43:34.748Z,25.84
2019-04-20T09:46:08.928Z,23.01
2019-04-20T09:48:53.569Z,21.99
2019-04-20T09:51:38.882Z,22.45
2019-04-20T09:54:05.306Z,23.04
2019-04-20T09:56:49.681Z,21.96
2019-04-20T09:59:22.060Z,21.63
2019-04-20T10:01:45.239Z,23.72
2019-04-20T10:04:15.323Z,22.63
2019-04-20T10:06:49.702Z,22.07
2019-04-20T10:09:29.458Z,21.58
2019-04-20T10:11:57.776Z,22.31
2019-04-20T10:14:31.080Z,22.23
2019-04-20T10:17:05.719Z,21.84
2019-04-20T10:19:40.096Z,22.14
2019-04-20T10:22:14.906Z,23.42
2019-04-20T10:24:50.335Z,21.72
2019-04-20T10:27:24.215Z,20.91
2019-04-20T10:30:00.744Z,21.01
2019-04-20T10:32:39.155Z,22.70
2019-04-20T10:35:08.989Z,21.19
2019-04-20T10:37:47.238Z,21.90
2019-04-20T10:40:35.834Z,21.36
2019-04-20T10:42:59.398Z,20.06
2019-04-20T10:45:30.882Z,23.46
2019-04-20T10:48:05.425Z,21.76
2019-04-20T10:50:39.020Z,24.90
2019-04-20T10:53:13.997Z,22.26
2019-04-20T10:55:47.427Z,21.54
2019-04-20T10:58:21.875Z,25.11
2019-04-20T11:00:55.744Z,25.08
2019-04-20T11:03:29.097Z,21.40
2019-04-20T11:06:02.812Z,21.46
2019-04-20T11:08:36.194Z,21.92
2019-04-20T11:11:16.405Z,22.57
2019-04-20T11:13:47.643Z,23.22
2019-04-20T11:16:26.600Z,21.98
2019-04-20T11:19:03.271Z,21.30
2019-04-20T11:21:36.943Z,20.74
2019-04-20T11:24:12.145Z,21.91
2019-04-20T11:26:46.862Z,20.71
2019-04-20T11:29:24.180Z,20.30
2019-04-20T11:31:58.192Z,20.06
2019-04-20T11:34:44.200Z,21.03
2019-04-20T11:37:19.345Z,22.39
2019-04-20T11:39:52.898Z,19.61
2019-04-20T11:42:26.173Z,21.41
2019-04-20T11:45:00.411Z,19.98
2019-04-20T11:48:11.641Z,20.91
2019-04-20T11:50:58.885Z,20.44
2019-04-20T11:53:34.807Z,19.68
2019-04-20T11:56:15.924Z,21.59
2019-04-20T11:58:43.183Z,19.86
2019-04-20T12:01:38.132Z,20.74
2019-04-20T12:04:24.907Z,21.53
2019-04-20T12:06:44.938Z,20.63
2019-04-20T12:09:19.047Z,19.41
2019-04-20T12:12:04.098Z,21.45
2019-04-20T12:14:28.465Z,20.64
2019-04-20T12:17:01.827Z,23.30
2019-04-20T12:19:36.295Z,21.07
2019-04-20T12:22:11.896Z,21.61
2019-04-20T12:24:47.918Z,22.35
2019-04-20T12:27:22.857Z,21.41
2019-04-20T12:29:57.552Z,20.90
2019-04-20T12:32:36.417Z,22.21
2019-04-20T12:35:08.603Z,20.06
2019-04-20T12:37:43.114Z,19.56
2019-04-20T12:40:19.929Z,19.72
2019-04-20T12:42:54.935Z,18.38
2019-04-20T12:45:42.423Z,19.70
2019-04-20T12:48:11.460Z,20.49
2019-04-20T12:50:47.800Z,19.18
2019-04-20T12:53:26.498Z,18.88
2019-04-20T12:56:04.354Z,20.92
2019-04-20T12:58:42.985Z,20.34
2019-04-20T13:01:23.724Z,20.04
2019-04-20T13:03:57.761Z,20.45
2019-04-20T13:06:32.146Z,20.85
2019-04-20T13:09:12.753Z,19.87
2019-04-20T13:12:09.943Z,20.99
2019-04-20T13:16:00.540Z,21.12
2019-04-20T13:18:47.517Z,22.09
2019-04-20T13:21:22.982Z,22.20
2019-04-20T13:23:56.640Z,22.09
2019-04-20T13:26:30.985Z,21.71
2019-04-20T13:29:06.776Z,22.01
2019-04-20T13:31:51.974Z,21.92
2019-04-20T13:34:19.906Z,20.40
2019-04-20T13:36:56.343Z,20.26
2019-04-20T13:39:30.965Z,20.99
2019-04-20T13:42:12.092Z,20.57
2019-04-20T13:44:39.197Z,21.25
2019-04-20T13:47:12.764Z,21.11
2019-04-20T13:49:47.087Z,20.59
2019-04-20T13:52:20.668Z,20.00
2019-04-20T13:54:55.908Z,19.45
2019-04-20T13:57:47.153Z,18.87
2019-04-20T14:00:55.544Z,18.98
2019-04-20T14:03:32.275Z,19.09
2019-04-20T14:06:06.849Z,19.45
2019-04-20T14:08:41.213Z,19.21
2019-04-20T14:11:15.606Z,18.67
2019-04-20T14:13:56.391Z,20.11
2019-04-20T14:16:25.159Z,19.61
2019-04-20T14:18:58.780Z,20.05
2019-04-20T14:21:32.628Z,19.52
2019-04-20T14:24:06.684Z,19.52
2019-04-20T14:26:42.121Z,20.16
2019-04-20T14:29:16.960Z,21.51
2019-04-20T14:31:50.427Z,20.77
2019-04-20T14:34:24.702Z,20.79
2019-04-20T14:37:00.279Z,21.29
2019-04-20T14:39:36.289Z,21.51
2019-04-20T14:42:09.976Z,22.13
2019-04-20T14:44:45.858Z,21.50
2019-04-20T14:47:19.279Z,21.48
2019-04-20T14:49:55.168Z,22.30
2019-04-20T14:52:29.440Z,21.96
2019-04-20T14:55:04.209Z,22.40
2019-04-20T14:57:37.457Z,22.22
2019-04-20T15:00:27.791Z,22.14
2019-04-20T15:03:19.860Z,22.72
2019-04-20T15:05:57.705Z,23.35
2019-04-20T15:08:32.401Z,23.70
2019-04-20T15:11:07.199Z,23.80
2019-04-20T15:13:40.753Z,22.74
2019-04-20T15:16:15.017Z,24.25
2019-04-20T15:19:05.641Z,24.23
2019-04-20T15:21:39.681Z,23.74
2019-04-20T15:24:13.403Z,23.19
2019-04-20T15:26:46.709Z,23.14
2019-04-20T15:29:22.135Z,24.14
2019-04-20T15:31:56.501Z,24.75
2019-04-20T15:34:30.914Z,23.85
2019-04-20T15:37:07.612Z,24.11
2019-04-20T15:39:41.150Z,24.44
2019-04-20T15:42:15.085Z,24.83
2019-04-20T15:44:58.874Z,24.48
2019-04-20T15:47:34.456Z,24.93
2019-04-20T15:50:09.744Z,25.07
2019-04-20T15:52:50.909Z,24.97
2019-04-20T15:55:29.611Z,25.19
2019-04-20T15:58:04.232Z,25.08
2019-04-20T16:00:38.378Z,25.00
2019-04-20T16:03:27.592Z,25.10
2019-04-20T16:06:39.191Z,25.17
2019-04-20T16:09:35.873Z,25.00
2019-04-20T16:12:17.254Z,25.38
2019-04-20T16:14:55.578Z,25.35
2019-04-20T16:17:36.363Z,24.88
2019-04-20T16:20:10.311Z,24.48
2019-04-20T16:22:40.550Z,24.57
2019-04-20T16:25:43.581Z,24.30
2019-04-20T16:28:17.373Z,24.11
2019-04-20T16:30:51.691Z,24.15
2019-04-20T16:33:26.062Z,24.32
2019-04-20T16:36:00.635Z,24.80
2019-04-20T16:38:35.087Z,24.89
2019-04-20T16:41:08.585Z,25.22
2019-04-20T16:43:44.717Z,24.67
2019-04-20T16:46:18.812Z,25.37
2019-04-20T16:48:52.659Z,25.04
2019-04-20T16:51:26.906Z,25.41
2019-04-20T16:54:01.539Z,25.49
2019-04-20T16:56:35.094Z,25.87
2019-04-20T16:59:10.327Z,26.20
2019-04-20T17:01:44.492Z,26.28
2019-04-20T17:04:22.037Z,26.69
2019-04-20T17:07:31.170Z,25.51
2019-04-20T17:10:04.596Z,26.03
2019-04-20T17:12:38.044Z,25.90
2019-04-20T17:15:15.833Z,25.77
2019-04-20T17:17:51.143Z,26.02
2019-04-20T17:20:25.742Z,25.53
2019-04-20T17:23:00.241Z,26.18
2019-04-20T17:25:34.372Z,25.88
2019-04-20T17:28:30.822Z,26.17
2019-04-20T17:31:39.702Z,26.11
2019-04-20T17:34:29.737Z,26.36
2019-04-20T17:36:50.633Z,26.11
2019-04-20T17:39:33.933Z,26.93
2019-04-20T17:42:16.849Z,27.69
2019-04-20T17:44:50.281Z,28.36
2019-04-20T17:47:32.917Z,28.71
2019-04-20T17:50:07.925Z,29.12
2019-04-20T17:52:44.854Z,29.47
2019-04-20T17:55:03.353Z,29.85
2019-04-20T17:57:37.310Z,30.50
2019-04-20T18:00:22.552Z,30.88
2019-04-20T18:03:12.338Z,31.31
2019-04-20T18:05:58.496Z,31.69
2019-04-20T18:08:32.159Z,31.82
2019-04-20T18:10:58.563Z,31.66
2019-04-20T18:13:28.563Z,31.85
2019-04-20T18:16:22.463Z,31.62
2019-04-20T18:19:05.654Z,31.69
2019-04-20T18:21:49.705Z,31.89
2019-04-20T18:24:50.720Z,31.73
2019-04-20T18:27:24.518Z,31.84
2019-04-20T18:29:53.443Z,32.28
2019-04-20T18:32:31.544Z,32.73
2019-04-20T18:35:12.200Z,32.91
2019-04-20T18:37:53.564Z,32.92
2019-04-20T18:40:29.124Z,32.95
2019-04-20T18:43:06.383Z,33.17
2019-04-20T18:45:52.738Z,33.23
2019-04-20T18:48:24.966Z,33.73
2019-04-20T18:50:44.231Z,33.69
2019-04-20T18:53:23.838Z,33.88
2019-04-20T18:55:55.315Z,33.74
2019-04-20T18:58:26.939Z,33.81
2019-04-20T19:01:01.152Z,33.89
2019-04-20T19:03:41.842Z,33.76
2019-04-20T19:06:11.235Z,34.52
2019-04-20T19:08:49.911Z,34.88
2019-04-20T19:11:23.223Z,35.12
2019-04-20T19:14:23.643Z,35.17
2019-04-20T19:17:05.623Z,35.37
2019-04-20T19:19:39.020Z,36.24
2019-04-20T19:22:07.926Z,37.69
2019-04-20T19:24:43.603Z,38.29
2019-04-20T19:27:37.847Z,38.26
2019-04-20T19:30:15.392Z,38.39
2019-04-20T19:32:54.484Z,38.19
2019-04-20T19:35:30.859Z,38.21
2019-04-20T19:38:01.465Z,38.12
2019-04-20T19:40:38.547Z,36.25
2019-04-20T19:43:13.185Z,36.16
2019-04-20T19:46:07.310Z,36.07
2019-04-20T19:48:24.091Z,36.42
2019-04-20T19:51:10.113Z,36.74
2019-04-20T19:53:44.227Z,36.91
2019-04-20T19:56:07.723Z,37.09
2019-04-20T19:58:45.640Z,37.48
2019-04-20T20:01:11.519Z,37.54
2019-04-20T20:03:50.623Z,37.72
2019-04-20T20:06:29.259Z,37.96
2019-04-20T20:09:04.170Z,38.41
2019-04-20T20:11:39.165Z,38.25
2019-04-20T20:14:13.071Z,38.48
2019-04-20T20:17:06.921Z,38.69
2019-04-20T20:19:35.529Z,38.65
2019-04-20T20:22:11.193Z,38.86
2019-04-20T20:24:31.387Z,39.05
2019-04-20T20:27:11.677Z,39.24
2019-04-20T20:29:47.260Z,39.48
2019-04-20T20:32:23.385Z,39.61
2019-04-20T20:34:56.217Z,39.73
2019-04-20T20:37:34.696Z,39.78
2019-04-20T20:40:13.566Z,39.93
2019-04-20T20:42:53.067Z,40.25
2019-04-20T20:45:22.695Z,40.50
2019-04-20T20:48:04.001Z,40.61
2019-04-20T20:50:42.067Z,40.85
2019-04-20T20:53:10.258Z,40.91
2019-04-20T20:55:40.949Z,41.05
2019-04-20T20:58:14.597Z,41.30
2019-04-20T21:00:54.385Z,41.27
2019-04-20T21:03:24.680Z,41.70
2019-04-20T21:05:53.626Z,41.48
2019-04-20T21:08:26.965Z,41.45
2019-04-20T21:11:00.240Z,41.52
2019-04-20T21:13:39.286Z,41.61
2019-04-20T21:16:16.372Z,41.84
2019-04-20T21:19:01.048Z,41.92
2019-04-20T21:21:33.519Z,42.04
2019-04-20T21:24:04.033Z,42.31
2019-04-20T21:26:38.718Z,42.40
2019-04-20T21:29:08.115Z,42.38
2019-04-20T21:31:43.454Z,42.58
2019-04-20T21:34:19.938Z,42.43
2019-04-20T21:36:55.345Z,42.78
2019-04-20T21:39:37.332Z,42.93
2019-04-20T21:42:09.443Z,43.04
2019-04-20T21:44:41.459Z,43.12
2019-04-20T21:47:15.618Z,43.27
2019-04-20T21:49:57.837Z,43.22
2019-04-20T21:52:26.965Z,44.19
2019-04-20T21:54:56.285Z,43.52
2019-04-20T21:57:32.587Z,43.47
2019-04-20T22:00:10.071Z,43.85
2019-04-20T22:02:48.862Z,43.99
2019-04-20T22:05:15.879Z,44.00
2019-04-20T22:07:50.345Z,44.54
2019-04-20T22:10:27.904Z,44.45
2019-04-20T22:13:01.094Z,44.57
2019-04-20T22:15:36.699Z,44.65
2019-04-20T22:18:12.571Z,44.70
2019-04-20T22:21:01.703Z,44.78
2019-04-20T22:23:41.768Z,44.84
2019-04-20T22:26:08.620Z,45.19
2019-04-20T22:28:29.831Z,45.32
2019-04-20T22:31:04.214Z,45.73
2019-04-20T22:33:41.194Z,45.94
2019-04-20T22:36:14.571Z,46.07
2019-04-20T22:39:09.475Z,47.19
2019-04-20T22:41:53.504Z,47.22
2019-04-20T22:44:28.388Z,47.31
2019-04-20T22:47:00.623Z,47.85
2019-04-20T22:49:48.559Z,48.16
2019-04-20T22:52:26.617Z,47.82
2019-04-20T22:55:08.067Z,48.17
2019-04-20T22:57:38.467Z,48.34
2019-04-20T23:00:03.442Z,48.44
2019-04-20T23:02:33.198Z,48.92
2019-04-20T23:05:06.979Z,49.09
2019-04-20T23:07:41.019Z,49.36
2019-04-20T23:10:20.281Z,49.34
2019-04-20T23:12:54.235Z,49.29
2019-04-20T23:15:25.914Z,49.31
2019-04-20T23:18:00.081Z,49.36
2019-04-20T23:20:36.099Z,49.12
2019-04-20T23:23:11.029Z,48.95
2019-04-20T23:25:45.037Z,48.70
2019-04-20T23:28:20.862Z,48.85
2019-04-20T23:31:00.090Z,48.76
2019-04-20T23:33:29.857Z,49.01
2019-04-20T23:36:05.083Z,49.02
2019-04-20T23:38:44.293Z,49.23
2019-04-20T23:41:15.446Z,49.43
2019-04-20T23:44:12.610Z,49.61
2019-04-20T23:47:18.367Z,49.60
2019-04-20T23:50:12.333Z,49.79
2019-04-20T23:52:53.926Z,49.98
2019-04-20T23:55:11.976Z,50.24
2019-04-20T23:57:56.205Z,50.54
